Sawyer International Airport Marquette US
ICAO: KSAW
IATA: SAW
Category: Medium
Scheduled Services: No

Elevation: 1221 ft
TransAlt. 18000 ft.

Airport Communications:
AWOS 3:118.375
MINNEAPOLIS CNTR:119.1
CTAF:119.975
GND:121.65
GREEN BAY RDO:123.6
TWR:119.975
UNICOM:122.7

KSAW Zoom In..

If you have problems with the map follow the link
https://www.worldairports.se/pages/airport.php?
ICAO=KSAW

Runways:

(A) RW 01 length 12366 ft width 150 ft
ILS 110.10 / hdg 13

(B) RW 19 length 12366 ft width 150 ft
---- / hdg 193

Location; KSAW
Day. 24 / Time. 10.45 Zulu
* Altimeter: 30.06
* Temperature: 00° c. 32°f.
* Wind from: 010° Speed 16 kn with Gusts up to 23 kn.
Dewpoint: -02° c.
Visibility: 10 Statute Miles.
Clouds: Overcast 800 ft.

KSAW 241045Z 01016G23KT 10SM OVC008 00/M02 A3006


Wind From 010°
Speed 16 kn.

 
 
jpsmedia.com for Web Design worldairports.se 2019   terms of use